Tropical Cyclones
[Index]
Main Index Home Page Stock Weather Photos Extreme Storms Discussion Storm News and Storm Chasing Reports Tropical Cyclones / Hurricanes / Typhoons Weather Data and Links Wild Fires / Bushfires Weather Observation Techniques Weather Picture Catalogue Tornado Pictures and Reports Stock Video Footage and DVDs for sale
Season 1975-1976 Tropical Cyclone COLIN Track Map
Season 1975-1976 Summaries: [BoM-AU] [JTWC-AU] [JTWC-SIO] [JTWC-SPAC] [JTWC-SH]
<<- Previous TC | JTWC 1975-1976 Season | Next TC ->>

click for intensity scale information  Lat/long Grid: Show Hide

 Date Labels: Show Hide

Joint Typhoon Warning Centre Cyclone Data

Name: COLIN
Number: 921 / 7617

24 Feb 1976 00:00 UTC to 06 Mar 1976 00:00 UTC

    date/time    lat    long     hPa   cat  kts
1976-02-24 00    6.0   156.0                              
1976-02-24 06    6.0   157.1                              
1976-02-24 12    6.3   157.8                              
1976-02-24 18    6.8   158.2                              
1976-02-25 00    7.4   158.3                              
1976-02-25 06    8.1   158.3                              
1976-02-25 12    8.8   158.2                              
1976-02-25 18    9.6   158.0                              
1976-02-26 00   10.3   157.7                              
1976-02-26 06   10.8   157.3                              
1976-02-26 12   11.1   156.9                              
1976-02-26 18   11.2   156.3                              
1976-02-27 00   11.3   155.7                              
1976-02-27 06   11.5   155.2                              
1976-02-27 12   11.7   154.7                              
1976-02-27 18   12.0   154.3                              
1976-02-28 00   12.6   154.1                              
1976-02-28 06   13.3   154.5                              
1976-02-28 12   14.1   155.0                              
1976-02-28 18   14.8   155.3                              
1976-02-29 00   15.6   155.5                              
1976-02-29 06   16.7   155.6                              
1976-02-29 12   17.8   155.6                              
1976-02-29 18   18.9   155.6                              
1976-03-01 00   20.0   155.6                              
1976-03-01 06   20.9   155.5                              
1976-03-01 12   21.7   155.4                              
1976-03-01 18   22.6   155.2                              
1976-03-02 00   23.5   155.0                              
1976-03-02 06   24.4   154.9                              
1976-03-02 12   25.4   155.2                              
1976-03-02 18   26.5   156.0                              
1976-03-03 00   27.6   156.8                              
1976-03-03 06   28.4   157.4                              
1976-03-03 12   29.2   158.0                              
1976-03-03 18   30.1   158.5                              
1976-03-04 00   31.1   158.7                              
1976-03-04 06   32.2   158.5                              
1976-03-04 12   33.4   158.0                              
1976-03-04 18   34.6   157.4                              
1976-03-05 00   35.9   156.7                              
1976-03-05 06   37.2   156.1                              
1976-03-05 12   38.5   155.4                              
1976-03-05 18   40.0   154.8                              
1976-03-06 00   41.8   154.2                              
Winds are 1-min average.

Tropical cyclone tracks developed by Michael Bath using data from the Joint Typhoon Warning Centre Best Tracks and Google Maps.


[Australian Severe Weather index] [Copyright Notice] [Email Contacts] [Search This Site] [Privacy Policy]
Document: tropical_cyclone_colin.htm Updated: 22 May 2013